Detall de PIREP

Printer-friendly versionPDF version

[2013/04/18 10:26:00]
Flight IATA:CT0001
Pilot Number:042
Company ICAO:CAT
Aircraft Type:C750/F
PAX:3
Departing Airport: LERS
Destination Airport: LEAL
Alternate Airport:LEPA
Online: VATSIM
Route:EBROX UM985 VLC
Flight Level:F290
No Slew and time accel
No pause
Crash detect
Detect pilot in Cockpit between each 30 and 45 minutes
10:26 Zero fuel Weight: 22921 Lbs, Fuel Weight: 12976 Lbs
10:26 VATSIM:LERS 181000Z 15005KT 100V200 CAVOK 20/10 Q1022
10:26 VATSIM:LEAL 181000Z 08005KT 030V120 9000 FEW025 18/14 Q1021 NOSIG
10:26 VOICE CATALONIAN
10:37 Parking Brakes off
10:44 Take-off
10:44 Take off Weight: 35733 Lbs
10:44 Wind: 000º @ 000 Knots Heading: 249º
10:44 POS N41º 08´ 43´´ E001º 09´ 37´´
10:44 Gear Up: 156 Knots
10:44 Flaps:4 at 156 Knots
10:45 Flaps:3 at 161 Knots
10:45 Flaps:2 at 156 Knots
10:45 Flaps:0 at 216 Knots
10:55 TOC
10:55 Fuel Weight: 12319 Lb
10:59 Wind:308º@051 Knots Heading: 232º Ground Speed: 504 Knots Altitude 29248 ft
11:04 TOD
11:04 Fuel Weight: 11997 Lb
11:04 TOC
11:04 Fuel Weight: 11994 Lb
11:04 TOD
11:04 Fuel Weight: 11994 Lb
11:14 Wind:297º@013 Knots Heading: 196º Ground Speed: 264 Knots Altitude 8776 ft
11:17 Flaps:2 at 208 Knots
11:18 Flaps:3 at 185 Knots
11:19 Flaps:4 at 174 Knots
11:19 Gear Down: 154 Knots
11:19 Flaps:5 at 154 Knots
11:23 TouchDown:Rate -657 ft/min Speed: 128 Knots
11:23 VATSIM:LEAL 181100Z 08005KT 020V140 9000 FEW025 18/14 Q1021 NOSIG
11:23 Land
11:23 Wind:190º@005 Knots
11:23 Heading: 100º
11:23 Flight Duration: 00:39
11:23 Landing Weight: 34753 Lbs
11:23 POS N38º 16´ 55´´ W000º 33´ 29´´
11:31 Parking brakes on
11:31 Block to Block Duration: 00:54
11:31 Final Fuel: 11724 Lbls
11:31 Spent Fuel: 1252 Lbls
11:31 Flight Length: 222 NM
11:31 TOD Land Length: 90 NM

Exportar CSV

Powered by Drupal - Modified by Danger4k